Airfield :
LOGIN :

Register | Disclaimer

   EN    FR    IT 

 










Legend :    VFR   Marginal VFR   IFR   Intensive IFR   Very Intensive IFR
Visi :
Ceiling :
>= 8 km
>= 3000ft
5 to 8 km
1000 to 3000 ft
1500m to 5 km
500 to 1000 ft
800 to 1500m
200 to 500 ft
< 800m
< 200 ft
Symbols :   Thunderstorms  Fog  Heavy snow  Heavy precipitations  Wind > 20 kt
SIGMETs :     Misc.  Thunderstorms  Icing  Turbulence  Mountain Waves  Volcanic Ashes







- Airport Elevation : 527 ft
- IATA code : DBV


LDDU - Dubrovnik

CURRENT METAR :
  • 191800Z 09011KT 9999 -RA SCT036 BKN043 10/08 Q1009

EXPIRED METARs :
  • 191730Z 09012KT 9999 -RA FEW045 BKN053 11/07 Q1010
  • 191700Z 09010KT 9999 -RA FEW028 BKN060 11/07 Q1010
  • 191630Z 10010KT 9999 FEW028 BKN058 11/07 Q1010 NOSIG
  • 191600Z 08010KT 9999 FEW035 BKN048 11/07 Q1010 NOSIG
  • 191530Z 08007KT 050V110 9999 SCT038 BKN048 10/07 Q1011 NOSIG

TAF COR TAF LDDU
Valid from the 19 at 18:00 until the 20 at 18:00 UTC


191742Z 1918/2018 12015KT 9999 BKN030 TX17/2009Z TN11/1918Z
TEMPO 1921/2005 15025G35KT
TEMPO 1921/2012 3000 +RA BKN010
PROB40
TEMPO 2000/2012 VRB20G30KT 1500 +TSRA BKN010 SCT017CB
BECMG 2013/2015 09008KT
PROB30
TEMPO 2015/2018 4000 -TSRA FEW020CB BKN025
No reported NOTAMs for that airfield.
1 SIGMET reported for the Zagreb FIR (LDZO) :
 
Severe turbulence
LDZO SIGMET 3 VALID 191800/192200 LDZA
LDZO ZAGREB FIR SEV TURB FCST WI N4221 E01612 - N4256 E01525 - N4401 E01631 - N4226 E01832 - N4125 E01820 - N4221 E01612 FL240/360 STNR NC=



MET'MAP, your aeronautical weather chart ! - Copyright ORBIFLY December 2007 - Disclaimer

ORBIFLY MET'MAP TEAM :

Programming & Development : Alexandra Zaïnal
Concept & Development : Baudouin d'Aumeries
Co-Development & Prog : Marc-Olivier Méhu
Technical & hardware support : Manuel Goepfert

Contact : metmap@orbifly.com




SOURCES & CREDITS :

   NOAA